JTM125 RCTP-VMMC
Flight info
| Callsign | JTM125 |
|---|---|
| Flight time | 1h 29m |
| Altitude | 34100 |
| Route | CHALI T3 MKG A1 ELATO J101 SMT |
| Aircraft | B738/M-SDE2FGHIRWY/L |
Departure
| Time | 2026-04-23 07:44 |
|---|---|
| Airport | Taiwan Taoyuan International Airport (RCTP) |
Arrival
| Time | 2026-04-23 09:13 |
|---|---|
| Airport | Macau International Airport (VMMC) |
| Time | Latitude | Longitude | Altitude | Speed | Heading |
|---|---|---|---|---|---|
| 2026-04-23 07:28 | 25.08292 | 121.23597 | 116 ft | 0 kts | 141° |
| 2026-04-23 07:35 | 25.08294 | 121.23595 | 116 ft | 0 kts | 141° |
| 2026-04-23 07:36 | 25.08300 | 121.23589 | 116 ft | 1 kts | 141° |
| 2026-04-23 07:36 | 25.08307 | 121.23583 | 116 ft | 1 kts | 141° |
| 2026-04-23 07:36 | 25.08315 | 121.23576 | 116 ft | 1 kts | 141° |
| 2026-04-23 07:36 | 25.08324 | 121.23569 | 116 ft | 1 kts | 141° |
| 2026-04-23 07:37 | 25.08334 | 121.23560 | 116 ft | 2 kts | 141° |
| 2026-04-23 07:37 | 25.08349 | 121.23547 | 116 ft | 2 kts | 141° |
| 2026-04-23 07:37 | 25.08359 | 121.23535 | 116 ft | 1 kts | 134° |
| 2026-04-23 07:37 | 25.08363 | 121.23531 | 116 ft | 0 kts | 129° |
| 2026-04-23 07:38 | 25.08365 | 121.23526 | 116 ft | 1 kts | 82° |
| 2026-04-23 07:38 | 25.08352 | 121.23507 | 116 ft | 1 kts | 40° |
| 2026-04-23 07:38 | 25.08375 | 121.23512 | 116 ft | 7 kts | 358° |
| 2026-04-23 07:38 | 25.08443 | 121.23475 | 116 ft | 12 kts | 320° |
| 2026-04-23 07:39 | 25.08508 | 121.23474 | 116 ft | 10 kts | 44° |
| 2026-04-23 07:39 | 25.08557 | 121.23534 | 116 ft | 12 kts | 49° |
| 2026-04-23 07:39 | 25.08625 | 121.23621 | 116 ft | 18 kts | 49° |
| 2026-04-23 07:39 | 25.08720 | 121.23742 | 116 ft | 23 kts | 49° |
| 2026-04-23 07:40 | 25.08830 | 121.23880 | 116 ft | 23 kts | 49° |
| 2026-04-23 07:40 | 25.08938 | 121.24020 | 116 ft | 23 kts | 48° |
| 2026-04-23 07:40 | 25.09046 | 121.24156 | 116 ft | 23 kts | 49° |
| 2026-04-23 07:40 | 25.09154 | 121.24292 | 116 ft | 23 kts | 48° |
| 2026-04-23 07:41 | 25.09259 | 121.24423 | 116 ft | 18 kts | 44° |
| 2026-04-23 07:41 | 25.09353 | 121.24413 | 116 ft | 5 kts | 318° |
| 2026-04-23 07:41 | 25.09354 | 121.24412 | 116 ft | 0 kts | 318° |
| 2026-04-23 07:42 | 25.09369 | 121.24397 | 116 ft | 11 kts | 317° |
| 2026-04-23 07:43 | 25.09388 | 121.24262 | 116 ft | 34 kts | 230° |
| 2026-04-23 07:43 | 25.09022 | 121.23794 | 116 ft | 118 kts | 229° |
| 2026-04-23 07:43 | 25.08353 | 121.22953 | 139 ft | 170 kts | 230° |
| 2026-04-23 07:43 | 25.07552 | 121.21925 | 665 ft | 176 kts | 234° |
| 2026-04-23 07:44 | 25.06783 | 121.20885 | 1335 ft | 180 kts | 236° |
| 2026-04-23 07:44 | 25.05994 | 121.19795 | 2028 ft | 188 kts | 234° |
| 2026-04-23 07:44 | 25.05124 | 121.18697 | 2823 ft | 196 kts | 230° |
| 2026-04-23 07:44 | 25.04229 | 121.17600 | 3706 ft | 199 kts | 230° |
| 2026-04-23 07:45 | 25.03351 | 121.16430 | 4557 ft | 203 kts | 238° |
| 2026-04-23 07:45 | 25.02981 | 121.14949 | 5428 ft | 210 kts | 268° |
| 2026-04-23 07:45 | 25.03375 | 121.13374 | 6289 ft | 222 kts | 291° |
| 2026-04-23 07:45 | 25.04149 | 121.11904 | 7152 ft | 226 kts | 294° |
| 2026-04-23 07:46 | 25.04932 | 121.10435 | 8005 ft | 226 kts | 293° |
| 2026-04-23 07:46 | 25.05714 | 121.08920 | 8725 ft | 235 kts | 293° |
| 2026-04-23 07:46 | 25.06551 | 121.07282 | 9265 ft | 253 kts | 293° |
| 2026-04-23 07:46 | 25.07430 | 121.05578 | 9944 ft | 266 kts | 294° |
| 2026-04-23 07:47 | 25.08377 | 121.03754 | 10581 ft | 280 kts | 294° |
| 2026-04-23 07:47 | 25.09361 | 121.01852 | 11129 ft | 296 kts | 294° |
| 2026-04-23 07:47 | 25.10376 | 120.99837 | 11683 ft | 310 kts | 291° |
| 2026-04-23 07:47 | 25.11161 | 120.97574 | 12246 ft | 319 kts | 278° |
| 2026-04-23 07:48 | 25.11280 | 120.95139 | 12741 ft | 329 kts | 261° |
| 2026-04-23 07:48 | 25.10707 | 120.92677 | 13356 ft | 337 kts | 247° |
| 2026-04-23 07:48 | 25.09629 | 120.90333 | 14124 ft | 343 kts | 238° |
| 2026-04-23 07:48 | 25.08155 | 120.88258 | 14956 ft | 348 kts | 229° |
| 2026-04-23 07:49 | 25.06445 | 120.86370 | 15756 ft | 352 kts | 225° |
| 2026-04-23 07:49 | 25.04653 | 120.84543 | 16547 ft | 356 kts | 224° |
| 2026-04-23 07:49 | 25.02811 | 120.82683 | 17263 ft | 361 kts | 225° |
| 2026-04-23 07:49 | 25.00985 | 120.80798 | 17993 ft | 365 kts | 225° |
| 2026-04-23 07:50 | 24.99156 | 120.78864 | 18722 ft | 368 kts | 226° |
| 2026-04-23 07:50 | 24.97299 | 120.76874 | 19343 ft | 374 kts | 226° |
| 2026-04-23 07:50 | 24.95414 | 120.74848 | 19880 ft | 382 kts | 226° |
| 2026-04-23 07:50 | 24.93502 | 120.72797 | 20371 ft | 391 kts | 227° |
| 2026-04-23 07:51 | 24.91548 | 120.70700 | 20792 ft | 400 kts | 227° |
| 2026-04-23 07:51 | 24.89517 | 120.68519 | 21190 ft | 410 kts | 227° |
| 2026-04-23 07:51 | 24.87462 | 120.66312 | 21595 ft | 419 kts | 227° |
| 2026-04-23 07:51 | 24.85337 | 120.64032 | 21963 ft | 428 kts | 227° |
| 2026-04-23 07:52 | 24.83199 | 120.61742 | 22358 ft | 436 kts | 227° |
| 2026-04-23 07:52 | 24.80991 | 120.59380 | 22747 ft | 444 kts | 227° |
| 2026-04-23 07:52 | 24.78780 | 120.57018 | 23166 ft | 450 kts | 227° |
| 2026-04-23 07:52 | 24.76518 | 120.54604 | 23728 ft | 453 kts | 227° |
| 2026-04-23 07:53 | 24.74255 | 120.52228 | 24344 ft | 454 kts | 226° |
| 2026-04-23 07:53 | 24.71831 | 120.49947 | 25076 ft | 454 kts | 222° |
| 2026-04-23 07:53 | 24.69329 | 120.47875 | 25914 ft | 451 kts | 220° |
| 2026-04-23 07:53 | 24.66797 | 120.45920 | 26727 ft | 447 kts | 219° |
| 2026-04-23 07:54 | 24.64228 | 120.44002 | 27519 ft | 444 kts | 218° |
| 2026-04-23 07:54 | 24.61682 | 120.42122 | 28293 ft | 440 kts | 219° |
| 2026-04-23 07:54 | 24.59165 | 120.40266 | 28983 ft | 438 kts | 219° |
| 2026-04-23 07:54 | 24.56629 | 120.38389 | 29690 ft | 435 kts | 219° |
| 2026-04-23 07:55 | 24.54132 | 120.36531 | 30344 ft | 433 kts | 219° |
| 2026-04-23 07:55 | 24.52056 | 120.34981 | 30882 ft | 432 kts | 219° |
| 2026-04-23 07:55 | 24.49590 | 120.33132 | 31564 ft | 429 kts | 220° |
| 2026-04-23 07:55 | 24.47111 | 120.31268 | 32187 ft | 427 kts | 219° |
| 2026-04-23 07:56 | 24.44675 | 120.29434 | 32817 ft | 425 kts | 220° |
| 2026-04-23 07:56 | 24.42270 | 120.27596 | 33537 ft | 421 kts | 220° |
| 2026-04-23 07:56 | 24.39856 | 120.25728 | 33908 ft | 425 kts | 221° |
| 2026-04-23 07:57 | 24.34965 | 120.21905 | 33917 ft | 428 kts | 221° |
| 2026-04-23 07:57 | 24.30067 | 120.18088 | 33915 ft | 427 kts | 221° |
| 2026-04-23 07:58 | 24.25174 | 120.14284 | 33919 ft | 428 kts | 221° |
| 2026-04-23 07:58 | 24.20301 | 120.10503 | 33920 ft | 429 kts | 221° |
| 2026-04-23 07:59 | 24.15428 | 120.06731 | 33919 ft | 428 kts | 220° |
| 2026-04-23 07:59 | 24.10554 | 120.02966 | 33916 ft | 428 kts | 221° |
| 2026-04-23 08:00 | 24.05661 | 119.99187 | 33921 ft | 432 kts | 221° |
| 2026-04-23 08:00 | 24.00792 | 119.95432 | 33914 ft | 428 kts | 221° |
| 2026-04-23 08:00 | 23.98340 | 119.93542 | 34089 ft | 433 kts | 220° |
| 2026-04-23 08:01 | 23.95864 | 119.91635 | 34739 ft | 431 kts | 221° |
| 2026-04-23 08:01 | 23.93451 | 119.89781 | 35525 ft | 425 kts | 221° |
| 2026-04-23 08:01 | 23.91035 | 119.87927 | 35868 ft | 426 kts | 221° |
| 2026-04-23 08:02 | 23.86139 | 119.84158 | 35906 ft | 426 kts | 221° |
| 2026-04-23 08:02 | 23.81282 | 119.80429 | 35907 ft | 424 kts | 221° |
| 2026-04-23 08:03 | 23.76454 | 119.76720 | 35908 ft | 425 kts | 221° |
| 2026-04-23 08:03 | 23.71622 | 119.73011 | 35909 ft | 426 kts | 221° |
| 2026-04-23 08:04 | 23.66740 | 119.69270 | 35911 ft | 424 kts | 221° |
| 2026-04-23 08:04 | 23.61980 | 119.65500 | 35913 ft | 420 kts | 226° |
| 2026-04-23 08:05 | 23.57974 | 119.60919 | 35914 ft | 414 kts | 238° |
| 2026-04-23 08:05 | 23.54750 | 119.55765 | 35915 ft | 411 kts | 242° |
| 2026-04-23 08:06 | 23.51729 | 119.50475 | 35912 ft | 409 kts | 243° |
| 2026-04-23 08:06 | 23.48721 | 119.45187 | 35914 ft | 412 kts | 243° |
| 2026-04-23 08:07 | 23.45666 | 119.39871 | 35909 ft | 411 kts | 242° |
| 2026-04-23 08:07 | 23.42615 | 119.34602 | 35907 ft | 413 kts | 242° |
| 2026-04-23 08:08 | 23.39558 | 119.29338 | 35906 ft | 411 kts | 242° |
| 2026-04-23 08:08 | 23.36495 | 119.24078 | 35906 ft | 412 kts | 242° |
| 2026-04-23 08:09 | 23.33417 | 119.18798 | 35913 ft | 413 kts | 242° |
| 2026-04-23 08:09 | 23.30334 | 119.13515 | 35916 ft | 412 kts | 242° |
| 2026-04-23 08:10 | 23.27259 | 119.08258 | 35910 ft | 411 kts | 242° |
| 2026-04-23 08:10 | 23.22658 | 119.00394 | 35917 ft | 412 kts | 242° |
| 2026-04-23 08:11 | 23.19570 | 118.95120 | 35910 ft | 412 kts | 242° |
| 2026-04-23 08:11 | 23.16510 | 118.89902 | 35918 ft | 413 kts | 242° |
| 2026-04-23 08:12 | 23.13415 | 118.84631 | 35912 ft | 413 kts | 242° |
| 2026-04-23 08:12 | 23.10336 | 118.79391 | 35917 ft | 413 kts | 242° |
| 2026-04-23 08:13 | 23.07240 | 118.74126 | 35916 ft | 413 kts | 242° |
| 2026-04-23 08:13 | 23.04137 | 118.68858 | 35917 ft | 413 kts | 242° |
| 2026-04-23 08:14 | 23.01052 | 118.63625 | 35913 ft | 413 kts | 242° |
| 2026-04-23 08:14 | 22.97937 | 118.58345 | 35909 ft | 413 kts | 242° |
| 2026-04-23 08:15 | 22.94837 | 118.53099 | 35902 ft | 413 kts | 242° |
| 2026-04-23 08:15 | 22.91697 | 118.47810 | 35903 ft | 413 kts | 241° |
| 2026-04-23 08:16 | 22.88583 | 118.42584 | 35905 ft | 415 kts | 241° |
| 2026-04-23 08:16 | 22.85465 | 118.37354 | 35903 ft | 415 kts | 241° |
| 2026-04-23 08:17 | 22.82329 | 118.32096 | 35902 ft | 414 kts | 241° |
| 2026-04-23 08:17 | 22.79196 | 118.26846 | 35904 ft | 415 kts | 240° |
| 2026-04-23 08:18 | 22.76065 | 118.21606 | 35905 ft | 415 kts | 240° |
| 2026-04-23 08:18 | 22.72932 | 118.16370 | 35905 ft | 416 kts | 240° |
| 2026-04-23 08:19 | 22.69783 | 118.11109 | 35903 ft | 416 kts | 240° |
| 2026-04-23 08:19 | 22.66634 | 118.05857 | 35902 ft | 416 kts | 240° |
| 2026-04-23 08:20 | 22.63497 | 118.00627 | 35902 ft | 417 kts | 240° |
| 2026-04-23 08:20 | 22.60341 | 117.95371 | 35900 ft | 417 kts | 240° |
| 2026-04-23 08:21 | 22.57168 | 117.90051 | 35900 ft | 417 kts | 240° |
| 2026-04-23 08:21 | 22.54023 | 117.84753 | 35898 ft | 418 kts | 240° |
| 2026-04-23 08:22 | 22.50883 | 117.79465 | 35897 ft | 418 kts | 240° |
| 2026-04-23 08:22 | 22.47730 | 117.74165 | 35898 ft | 419 kts | 240° |
| 2026-04-23 08:23 | 22.44570 | 117.68861 | 35902 ft | 419 kts | 240° |
| 2026-04-23 08:23 | 22.41426 | 117.63592 | 35903 ft | 419 kts | 240° |
| 2026-04-23 08:24 | 22.38249 | 117.58275 | 35906 ft | 421 kts | 240° |
| 2026-04-23 08:24 | 22.35623 | 117.52697 | 35911 ft | 416 kts | 254° |
| 2026-04-23 08:25 | 22.34689 | 117.46564 | 35913 ft | 413 kts | 269° |
| 2026-04-23 08:25 | 22.35175 | 117.40430 | 35911 ft | 412 kts | 280° |
| 2026-04-23 08:26 | 22.36438 | 117.34341 | 35911 ft | 414 kts | 283° |
| 2026-04-23 08:26 | 22.37811 | 117.28355 | 35914 ft | 414 kts | 283° |
| 2026-04-23 08:27 | 22.39163 | 117.22315 | 35913 ft | 413 kts | 282° |
| 2026-04-23 08:27 | 22.40473 | 117.16278 | 35914 ft | 413 kts | 282° |
| 2026-04-23 08:28 | 22.41758 | 117.10239 | 35911 ft | 414 kts | 282° |
| 2026-04-23 08:28 | 22.43033 | 117.04189 | 35906 ft | 412 kts | 282° |
| 2026-04-23 08:29 | 22.44299 | 116.98154 | 35902 ft | 412 kts | 282° |
| 2026-04-23 08:29 | 22.45564 | 116.92108 | 35902 ft | 414 kts | 282° |
| 2026-04-23 08:30 | 22.46831 | 116.86045 | 35902 ft | 413 kts | 282° |
| 2026-04-23 08:30 | 22.48085 | 116.80031 | 35902 ft | 412 kts | 282° |
| 2026-04-23 08:31 | 22.49340 | 116.73995 | 35901 ft | 413 kts | 282° |
| 2026-04-23 08:31 | 22.50330 | 116.67893 | 35898 ft | 412 kts | 275° |
| 2026-04-23 08:32 | 22.50449 | 116.61695 | 35894 ft | 413 kts | 269° |
| 2026-04-23 08:32 | 22.50141 | 116.55507 | 35897 ft | 413 kts | 267° |
| 2026-04-23 08:33 | 22.49756 | 116.49288 | 35892 ft | 411 kts | 267° |
| 2026-04-23 08:33 | 22.49382 | 116.43098 | 35895 ft | 415 kts | 267° |
| 2026-04-23 08:34 | 22.49017 | 116.36852 | 35890 ft | 412 kts | 267° |
| 2026-04-23 08:34 | 22.48663 | 116.30675 | 35891 ft | 413 kts | 267° |
| 2026-04-23 08:35 | 22.48309 | 116.24476 | 35891 ft | 413 kts | 267° |
| 2026-04-23 08:35 | 22.47953 | 116.18283 | 35892 ft | 414 kts | 267° |
| 2026-04-23 08:36 | 22.47594 | 116.12061 | 35893 ft | 413 kts | 267° |
| 2026-04-23 08:36 | 22.47234 | 116.05880 | 35896 ft | 412 kts | 267° |
| 2026-04-23 08:37 | 22.46870 | 115.99662 | 35902 ft | 413 kts | 267° |
| 2026-04-23 08:37 | 22.46504 | 115.93463 | 35905 ft | 413 kts | 267° |
| 2026-04-23 08:38 | 22.46138 | 115.87295 | 35905 ft | 413 kts | 267° |
| 2026-04-23 08:38 | 22.45769 | 115.81130 | 35908 ft | 414 kts | 267° |
| 2026-04-23 08:39 | 22.45394 | 115.74889 | 35911 ft | 412 kts | 267° |
| 2026-04-23 08:39 | 22.45018 | 115.68689 | 35918 ft | 414 kts | 267° |
| 2026-04-23 08:40 | 22.44640 | 115.62496 | 35916 ft | 413 kts | 267° |
| 2026-04-23 08:40 | 22.44261 | 115.56300 | 35910 ft | 413 kts | 267° |
| 2026-04-23 08:41 | 22.43882 | 115.50146 | 35913 ft | 413 kts | 267° |
| 2026-04-23 08:41 | 22.43498 | 115.43952 | 35912 ft | 413 kts | 267° |
| 2026-04-23 08:42 | 22.43110 | 115.37756 | 35913 ft | 411 kts | 267° |
| 2026-04-23 08:42 | 22.42723 | 115.31607 | 35544 ft | 407 kts | 267° |
| 2026-04-23 08:43 | 22.42529 | 115.28532 | 34727 ft | 408 kts | 267° |
| 2026-04-23 08:43 | 22.42337 | 115.25497 | 34039 ft | 406 kts | 267° |
| 2026-04-23 08:43 | 22.42144 | 115.22459 | 33384 ft | 403 kts | 267° |
| 2026-04-23 08:43 | 22.41954 | 115.19481 | 32824 ft | 399 kts | 267° |
| 2026-04-23 08:44 | 22.41764 | 115.16508 | 32225 ft | 396 kts | 267° |
| 2026-04-23 08:44 | 22.41574 | 115.13530 | 31748 ft | 391 kts | 267° |
| 2026-04-23 08:44 | 22.41388 | 115.10637 | 31192 ft | 389 kts | 267° |
| 2026-04-23 08:44 | 22.41200 | 115.07732 | 30658 ft | 385 kts | 267° |
| 2026-04-23 08:45 | 22.41016 | 115.04884 | 30192 ft | 380 kts | 266° |
| 2026-04-23 08:45 | 22.40834 | 115.02065 | 29676 ft | 376 kts | 266° |
| 2026-04-23 08:45 | 22.40652 | 114.99272 | 29156 ft | 373 kts | 267° |
| 2026-04-23 08:45 | 22.40471 | 114.96487 | 28668 ft | 368 kts | 266° |
| 2026-04-23 08:46 | 22.40293 | 114.93752 | 28136 ft | 366 kts | 266° |
| 2026-04-23 08:46 | 22.40115 | 114.91022 | 27605 ft | 363 kts | 266° |
| 2026-04-23 08:46 | 22.39939 | 114.88326 | 27097 ft | 360 kts | 266° |
| 2026-04-23 08:46 | 22.39763 | 114.85636 | 26570 ft | 358 kts | 266° |
| 2026-04-23 08:47 | 22.39588 | 114.82978 | 26053 ft | 355 kts | 266° |
| 2026-04-23 08:47 | 22.39415 | 114.80369 | 25550 ft | 352 kts | 266° |
| 2026-04-23 08:47 | 22.39241 | 114.77749 | 25023 ft | 349 kts | 265° |
| 2026-04-23 08:47 | 22.39068 | 114.75150 | 24484 ft | 348 kts | 266° |
| 2026-04-23 08:48 | 22.38894 | 114.72550 | 23965 ft | 345 kts | 266° |
| 2026-04-23 08:48 | 22.38722 | 114.69978 | 23521 ft | 341 kts | 266° |
| 2026-04-23 08:48 | 22.38554 | 114.67465 | 22978 ft | 340 kts | 265° |
| 2026-04-23 08:48 | 22.38384 | 114.64925 | 22489 ft | 337 kts | 265° |
| 2026-04-23 08:49 | 22.38216 | 114.62415 | 22002 ft | 335 kts | 265° |
| 2026-04-23 08:49 | 22.38048 | 114.59930 | 21510 ft | 333 kts | 265° |
| 2026-04-23 08:49 | 22.37881 | 114.57461 | 21050 ft | 330 kts | 265° |
| 2026-04-23 08:49 | 22.37715 | 114.55006 | 20616 ft | 326 kts | 265° |
| 2026-04-23 08:50 | 22.37548 | 114.52563 | 20125 ft | 324 kts | 265° |
| 2026-04-23 08:50 | 22.37385 | 114.50166 | 19637 ft | 322 kts | 265° |
| 2026-04-23 08:50 | 22.37222 | 114.47774 | 19172 ft | 320 kts | 265° |
| 2026-04-23 08:50 | 22.37059 | 114.45389 | 18714 ft | 317 kts | 265° |
| 2026-04-23 08:51 | 22.36896 | 114.43037 | 18226 ft | 315 kts | 265° |
| 2026-04-23 08:51 | 22.36736 | 114.40698 | 17719 ft | 314 kts | 266° |
| 2026-04-23 08:51 | 22.36576 | 114.38368 | 17238 ft | 311 kts | 265° |
| 2026-04-23 08:51 | 22.36416 | 114.36046 | 16774 ft | 309 kts | 266° |
| 2026-04-23 08:52 | 22.36259 | 114.33749 | 16335 ft | 306 kts | 265° |
| 2026-04-23 08:52 | 22.36104 | 114.31481 | 15885 ft | 304 kts | 265° |
| 2026-04-23 08:52 | 22.35945 | 114.29205 | 15367 ft | 304 kts | 265° |
| 2026-04-23 08:52 | 22.35786 | 114.26924 | 14914 ft | 301 kts | 265° |
| 2026-04-23 08:53 | 22.35632 | 114.24709 | 14470 ft | 298 kts | 265° |
| 2026-04-23 08:53 | 22.35478 | 114.22527 | 14559 ft | 289 kts | 265° |
| 2026-04-23 08:53 | 22.35321 | 114.20281 | 14574 ft | 313 kts | 265° |
| 2026-04-23 08:53 | 22.35151 | 114.17856 | 14708 ft | 334 kts | 265° |
| 2026-04-23 08:54 | 22.34983 | 114.15417 | 15812 ft | 328 kts | 265° |
| 2026-04-23 08:54 | 22.34812 | 114.12949 | 16595 ft | 333 kts | 265° |
| 2026-04-23 08:54 | 22.34636 | 114.10461 | 17464 ft | 335 kts | 265° |
| 2026-04-23 08:54 | 22.34456 | 114.07941 | 18180 ft | 339 kts | 265° |
| 2026-04-23 08:55 | 22.34275 | 114.05415 | 18594 ft | 344 kts | 265° |
| 2026-04-23 08:55 | 22.34090 | 114.02830 | 18623 ft | 345 kts | 265° |
| 2026-04-23 08:55 | 22.33899 | 114.00233 | 18633 ft | 344 kts | 265° |
| 2026-04-23 08:55 | 22.33594 | 113.97697 | 18632 ft | 345 kts | 261° |
| 2026-04-23 08:56 | 22.33093 | 113.95134 | 18630 ft | 345 kts | 256° |
| 2026-04-23 08:56 | 22.32153 | 113.92802 | 18631 ft | 348 kts | 237° |
| 2026-04-23 08:56 | 22.30390 | 113.90951 | 18636 ft | 355 kts | 219° |
| 2026-04-23 08:56 | 22.28249 | 113.89608 | 18616 ft | 355 kts | 210° |
| 2026-04-23 08:57 | 22.26089 | 113.88416 | 18505 ft | 340 kts | 214° |
| 2026-04-23 08:57 | 22.24144 | 113.87063 | 18382 ft | 323 kts | 220° |
| 2026-04-23 08:57 | 22.22406 | 113.85638 | 18252 ft | 308 kts | 223° |
| 2026-04-23 08:57 | 22.20779 | 113.84206 | 18044 ft | 299 kts | 224° |
| 2026-04-23 08:58 | 22.19183 | 113.82777 | 17694 ft | 295 kts | 224° |
| 2026-04-23 08:58 | 22.17586 | 113.81358 | 17237 ft | 296 kts | 224° |
| 2026-04-23 08:58 | 22.16003 | 113.79970 | 16827 ft | 294 kts | 223° |
| 2026-04-23 08:58 | 22.14415 | 113.78589 | 16292 ft | 292 kts | 223° |
| 2026-04-23 08:59 | 22.12844 | 113.77230 | 15681 ft | 288 kts | 223° |
| 2026-04-23 08:59 | 22.11290 | 113.75889 | 15010 ft | 287 kts | 223° |
| 2026-04-23 08:59 | 22.09748 | 113.74558 | 14345 ft | 284 kts | 223° |
| 2026-04-23 08:59 | 22.08221 | 113.73243 | 13682 ft | 282 kts | 223° |
| 2026-04-23 09:00 | 22.06692 | 113.71928 | 13033 ft | 279 kts | 222° |
| 2026-04-23 09:00 | 22.05189 | 113.70634 | 12402 ft | 275 kts | 222° |
| 2026-04-23 09:00 | 22.03740 | 113.69334 | 11736 ft | 272 kts | 227° |
| 2026-04-23 09:00 | 22.02593 | 113.67757 | 11090 ft | 265 kts | 247° |
| 2026-04-23 09:01 | 22.02174 | 113.65860 | 10742 ft | 260 kts | 265° |
| 2026-04-23 09:01 | 22.02152 | 113.63930 | 10279 ft | 261 kts | 275° |
| 2026-04-23 09:01 | 22.02693 | 113.62044 | 9883 ft | 264 kts | 296° |
| 2026-04-23 09:01 | 22.03849 | 113.60519 | 9480 ft | 269 kts | 314° |
| 2026-04-23 09:02 | 22.05333 | 113.59266 | 9085 ft | 270 kts | 320° |
| 2026-04-23 09:02 | 22.06883 | 113.58161 | 8888 ft | 266 kts | 322° |
| 2026-04-23 09:02 | 22.08464 | 113.57069 | 8890 ft | 270 kts | 322° |
| 2026-04-23 09:02 | 22.10032 | 113.55964 | 8778 ft | 265 kts | 321° |
| 2026-04-23 09:03 | 22.11547 | 113.54868 | 8358 ft | 266 kts | 320° |
| 2026-04-23 09:03 | 22.13082 | 113.53707 | 7927 ft | 267 kts | 319° |
| 2026-04-23 09:03 | 22.14589 | 113.52539 | 7523 ft | 267 kts | 319° |
| 2026-04-23 09:03 | 22.16096 | 113.51370 | 7170 ft | 265 kts | 319° |
| 2026-04-23 09:04 | 22.17582 | 113.50222 | 6803 ft | 264 kts | 320° |
| 2026-04-23 09:04 | 22.19086 | 113.49065 | 6443 ft | 263 kts | 320° |
| 2026-04-23 09:04 | 22.20640 | 113.47992 | 6045 ft | 267 kts | 329° |
| 2026-04-23 09:04 | 22.22413 | 113.47488 | 5899 ft | 272 kts | 357° |
| 2026-04-23 09:05 | 22.24293 | 113.47981 | 5910 ft | 284 kts | 24° |
| 2026-04-23 09:05 | 22.25994 | 113.49068 | 5901 ft | 286 kts | 31° |
| 2026-04-23 09:05 | 22.27642 | 113.50246 | 5895 ft | 276 kts | 31° |
| 2026-04-23 09:05 | 22.29200 | 113.51357 | 5903 ft | 260 kts | 31° |
| 2026-04-23 09:06 | 22.30698 | 113.52400 | 5726 ft | 254 kts | 30° |
| 2026-04-23 09:06 | 22.32208 | 113.53428 | 5382 ft | 256 kts | 29° |
| 2026-04-23 09:06 | 22.33725 | 113.54451 | 5031 ft | 259 kts | 29° |
| 2026-04-23 09:06 | 22.35212 | 113.55549 | 4672 ft | 261 kts | 38° |
| 2026-04-23 09:07 | 22.36371 | 113.57082 | 4279 ft | 265 kts | 67° |
| 2026-04-23 09:07 | 22.36684 | 113.58966 | 4017 ft | 253 kts | 94° |
| 2026-04-23 09:07 | 22.36247 | 113.60710 | 3858 ft | 235 kts | 127° |
| 2026-04-23 09:07 | 22.35140 | 113.61897 | 3718 ft | 215 kts | 151° |
| 2026-04-23 09:08 | 22.33833 | 113.62493 | 3531 ft | 191 kts | 173° |
| 2026-04-23 09:08 | 22.32578 | 113.62779 | 3353 ft | 177 kts | 167° |
| 2026-04-23 09:08 | 22.31436 | 113.63179 | 3170 ft | 169 kts | 167° |
| 2026-04-23 09:08 | 22.30351 | 113.63524 | 2991 ft | 155 kts | 169° |
| 2026-04-23 09:09 | 22.29351 | 113.63830 | 2843 ft | 143 kts | 169° |
| 2026-04-23 09:09 | 22.28379 | 113.64064 | 2651 ft | 142 kts | 179° |
| 2026-04-23 09:09 | 22.27398 | 113.63990 | 2456 ft | 139 kts | 197° |
| 2026-04-23 09:09 | 22.26466 | 113.63661 | 2264 ft | 141 kts | 208° |
| 2026-04-23 09:10 | 22.25638 | 113.63120 | 2070 ft | 140 kts | 223° |
| 2026-04-23 09:10 | 22.24381 | 113.61494 | 1701 ft | 141 kts | 238° |
| 2026-04-23 09:10 | 22.23815 | 113.60635 | 1555 ft | 141 kts | 238° |
| 2026-04-23 09:11 | 22.23241 | 113.59769 | 1382 ft | 142 kts | 238° |
| 2026-04-23 09:11 | 22.22676 | 113.58899 | 1236 ft | 141 kts | 239° |
| 2026-04-23 09:11 | 22.22113 | 113.58020 | 1064 ft | 143 kts | 236° |
| 2026-04-23 09:11 | 22.21314 | 113.57361 | 883 ft | 147 kts | 205° |
| 2026-04-23 09:12 | 22.20306 | 113.57179 | 720 ft | 149 kts | 178° |
| 2026-04-23 09:12 | 22.19296 | 113.57418 | 599 ft | 146 kts | 158° |
| 2026-04-23 09:12 | 22.18357 | 113.57826 | 448 ft | 146 kts | 160° |
| 2026-04-23 09:12 | 22.17404 | 113.58191 | 328 ft | 144 kts | 159° |
| 2026-04-23 09:13 | 22.16452 | 113.58567 | 160 ft | 147 kts | 159° |
| 2026-04-23 09:13 | 22.15492 | 113.58930 | 35 ft | 143 kts | 157° |
| 2026-04-23 09:13 | 22.14624 | 113.59269 | 12 ft | 112 kts | 160° |
| 2026-04-23 09:13 | 22.14133 | 113.59441 | 12 ft | 37 kts | 162° |
| 2026-04-23 09:14 | 22.14060 | 113.59467 | 12 ft | 0 kts | 161° |
| 2026-04-23 09:14 | 22.14046 | 113.59472 | 12 ft | 6 kts | 161° |
| 2026-04-23 09:14 | 22.13974 | 113.59496 | 12 ft | 15 kts | 162° |
| 2026-04-23 09:14 | 22.13864 | 113.59536 | 12 ft | 16 kts | 161° |
| 2026-04-23 09:15 | 22.13753 | 113.59577 | 12 ft | 16 kts | 166° |
| 2026-04-23 09:15 | 22.13665 | 113.59529 | 12 ft | 15 kts | 252° |
| 2026-04-23 09:15 | 22.13672 | 113.59424 | 11 ft | 15 kts | 326° |
| 2026-04-23 09:15 | 22.13766 | 113.59385 | 12 ft | 13 kts | 342° |
| 2026-04-23 09:16 | 22.13855 | 113.59352 | 12 ft | 13 kts | 340° |
| 2026-04-23 09:16 | 22.13943 | 113.59320 | 12 ft | 13 kts | 342° |
| 2026-04-23 09:16 | 22.14039 | 113.59285 | 12 ft | 17 kts | 341° |
| 2026-04-23 09:16 | 22.14167 | 113.59240 | 12 ft | 19 kts | 343° |
| 2026-04-23 09:17 | 22.14294 | 113.59192 | 12 ft | 18 kts | 342° |
| 2026-04-23 09:17 | 22.14415 | 113.59148 | 12 ft | 18 kts | 341° |
| 2026-04-23 09:17 | 22.14533 | 113.59103 | 12 ft | 17 kts | 341° |
| 2026-04-23 09:17 | 22.14646 | 113.59063 | 12 ft | 16 kts | 342° |
| 2026-04-23 09:18 | 22.14743 | 113.59004 | 12 ft | 15 kts | 306° |
| 2026-04-23 09:18 | 22.14810 | 113.58904 | 10 ft | 17 kts | 305° |
| 2026-04-23 09:18 | 22.14878 | 113.58795 | 9 ft | 17 kts | 304° |
| 2026-04-23 09:18 | 22.14946 | 113.58684 | 9 ft | 17 kts | 304° |
| 2026-04-23 09:19 | 22.15013 | 113.58573 | 9 ft | 17 kts | 303° |
| 2026-04-23 09:19 | 22.15083 | 113.58462 | 9 ft | 17 kts | 304° |
| 2026-04-23 09:19 | 22.15151 | 113.58351 | 9 ft | 17 kts | 303° |
| 2026-04-23 09:19 | 22.15219 | 113.58241 | 9 ft | 17 kts | 304° |
| 2026-04-23 09:20 | 22.15287 | 113.58131 | 9 ft | 17 kts | 304° |
| 2026-04-23 09:20 | 22.15362 | 113.58010 | 9 ft | 23 kts | 304° |
| 2026-04-23 09:20 | 22.15455 | 113.57859 | 11 ft | 23 kts | 304° |
| 2026-04-23 09:20 | 22.15542 | 113.57719 | 13 ft | 21 kts | 303° |
| 2026-04-23 09:21 | 22.15628 | 113.57595 | 18 ft | 18 kts | 314° |
| 2026-04-23 09:21 | 22.15699 | 113.57515 | 22 ft | 0 kts | 313° |